sensor_id;sensor_type;location;lat;lon;timestamp;P1;durP1;ratioP1;P2;durP2;ratioP2
60726;SDS011;46577;49.004;12.120;2023-06-14T00:00:42;10.23;;;4.83;;
60726;SDS011;46577;49.004;12.120;2023-06-14T00:03:08;6.63;;;4.60;;
60726;SDS011;46577;49.004;12.120;2023-06-14T00:05:35;6.53;;;3.63;;
60726;SDS011;46577;49.004;12.120;2023-06-14T00:08:05;7.97;;;4.20;;
60726;SDS011;46577;49.004;12.120;2023-06-14T00:10:33;10.20;;;4.30;;
60726;SDS011;46577;49.004;12.120;2023-06-14T00:13:00;8.07;;;4.57;;
60726;SDS011;46577;49.004;12.120;2023-06-14T00:15:26;7.13;;;4.43;;
60726;SDS011;46577;49.004;12.120;2023-06-14T00:17:53;7.60;;;4.37;;
60726;SDS011;46577;49.004;12.120;2023-06-14T00:20:19;7.10;;;3.90;;
60726;SDS011;46577;49.004;12.120;2023-06-14T00:22:45;7.43;;;4.43;;
60726;SDS011;46577;49.004;12.120;2023-06-14T00:25:11;9.37;;;5.30;;
60726;SDS011;46577;49.004;12.120;2023-06-14T00:27:37;7.93;;;5.13;;
60726;SDS011;46577;49.004;12.120;2023-06-14T00:30:03;9.67;;;4.27;;
60726;SDS011;46577;49.004;12.120;2023-06-14T00:32:28;16.73;;;5.10;;
60726;SDS011;46577;49.004;12.120;2023-06-14T00:34:54;12.23;;;5.10;;
60726;SDS011;46577;49.004;12.120;2023-06-14T00:37:20;8.10;;;4.00;;
60726;SDS011;46577;49.004;12.120;2023-06-14T00:39:45;8.70;;;4.53;;
60726;SDS011;46577;49.004;12.120;2023-06-14T00:42:11;9.63;;;4.20;;
60726;SDS011;46577;49.004;12.120;2023-06-14T00:44:48;8.70;;;4.23;;
60726;SDS011;46577;49.004;12.120;2023-06-14T00:47:14;8.93;;;3.70;;
60726;SDS011;46577;49.004;12.120;2023-06-14T00:49:40;11.40;;;4.10;;
60726;SDS011;46577;49.004;12.120;2023-06-14T00:52:06;10.00;;;4.30;;
60726;SDS011;46577;49.004;12.120;2023-06-14T00:54:31;7.50;;;4.03;;
60726;SDS011;46577;49.004;12.120;2023-06-14T00:56:57;6.53;;;4.40;;
60726;SDS011;46577;49.004;12.120;2023-06-14T00:59:23;8.80;;;4.77;;
60726;SDS011;46577;49.004;12.120;2023-06-14T01:01:48;10.37;;;5.10;;
60726;SDS011;46577;49.004;12.120;2023-06-14T01:04:14;5.10;;;3.87;;
60726;SDS011;46577;49.004;12.120;2023-06-14T01:09:22;4.27;;;3.70;;
60726;SDS011;46577;49.004;12.120;2023-06-14T01:14:49;7.73;;;4.20;;
60726;SDS011;46577;49.004;12.120;2023-06-14T01:17:17;5.80;;;3.67;;
60726;SDS011;46577;49.004;12.120;2023-06-14T01:19:43;4.20;;;3.80;;
60726;SDS011;46577;49.004;12.120;2023-06-14T01:22:10;7.97;;;4.10;;
60726;SDS011;46577;49.004;12.120;2023-06-14T01:24:36;5.50;;;3.80;;
60726;SDS011;46577;49.004;12.120;2023-06-14T01:27:04;6.30;;;4.13;;
60726;SDS011;46577;49.004;12.120;2023-06-14T01:29:32;5.27;;;3.10;;
60726;SDS011;46577;49.004;12.120;2023-06-14T01:31:58;10.50;;;4.10;;
60726;SDS011;46577;49.004;12.120;2023-06-14T01:34:25;5.60;;;3.63;;
60726;SDS011;46577;49.004;12.120;2023-06-14T01:36:51;5.17;;;3.73;;
60726;SDS011;46577;49.004;12.120;2023-06-14T01:39:19;6.60;;;3.73;;
60726;SDS011;46577;49.004;12.120;2023-06-14T01:41:46;4.43;;;3.70;;
60726;SDS011;46577;49.004;12.120;2023-06-14T01:44:14;7.00;;;4.40;;
60726;SDS011;46577;49.004;12.120;2023-06-14T01:46:41;5.97;;;4.83;;
60726;SDS011;46577;49.004;12.120;2023-06-14T01:49:08;6.07;;;4.00;;
60726;SDS011;46577;49.004;12.120;2023-06-14T01:51:35;7.27;;;4.80;;
60726;SDS011;46577;49.004;12.120;2023-06-14T01:54:01;10.77;;;4.00;;
60726;SDS011;46577;49.004;12.120;2023-06-14T01:56:26;4.47;;;3.40;;
60726;SDS011;46577;49.004;12.120;2023-06-14T01:58:52;6.43;;;3.73;;
60726;SDS011;46577;49.004;12.120;2023-06-14T02:01:18;3.80;;;3.40;;
60726;SDS011;46577;49.004;12.120;2023-06-14T02:03:46;5.67;;;3.60;;
60726;SDS011;46577;49.004;12.120;2023-06-14T02:06:13;6.93;;;4.07;;
60726;SDS011;46577;49.004;12.120;2023-06-14T02:08:38;7.27;;;4.00;;
60726;SDS011;46577;49.004;12.120;2023-06-14T02:11:05;5.40;;;3.90;;
60726;SDS011;46577;49.004;12.120;2023-06-14T02:13:30;5.73;;;4.40;;
60726;SDS011;46577;49.004;12.120;2023-06-14T02:15:56;8.23;;;4.23;;
60726;SDS011;46577;49.004;12.120;2023-06-14T02:18:22;5.90;;;4.17;;
60726;SDS011;46577;49.004;12.120;2023-06-14T02:20:48;7.20;;;4.17;;
60726;SDS011;46577;49.004;12.120;2023-06-14T02:23:14;6.40;;;3.90;;
60726;SDS011;46577;49.004;12.120;2023-06-14T02:25:39;5.10;;;3.77;;
60726;SDS011;46577;49.004;12.120;2023-06-14T02:28:05;5.87;;;3.97;;
60726;SDS011;46577;49.004;12.120;2023-06-14T02:30:31;6.70;;;3.80;;
60726;SDS011;46577;49.004;12.120;2023-06-14T02:32:56;6.33;;;4.27;;
60726;SDS011;46577;49.004;12.120;2023-06-14T02:35:22;8.47;;;3.80;;
60726;SDS011;46577;49.004;12.120;2023-06-14T02:37:51;7.53;;;4.20;;
60726;SDS011;46577;49.004;12.120;2023-06-14T02:40:17;8.20;;;3.90;;
60726;SDS011;46577;49.004;12.120;2023-06-14T02:42:43;10.83;;;3.67;;
60726;SDS011;46577;49.004;12.120;2023-06-14T02:45:09;9.43;;;4.10;;
60726;SDS011;46577;49.004;12.120;2023-06-14T02:47:35;8.93;;;3.70;;
60726;SDS011;46577;49.004;12.120;2023-06-14T02:50:00;8.47;;;4.30;;
60726;SDS011;46577;49.004;12.120;2023-06-14T02:52:27;7.80;;;3.93;;
60726;SDS011;46577;49.004;12.120;2023-06-14T02:54:53;5.87;;;3.97;;
60726;SDS011;46577;49.004;12.120;2023-06-14T02:57:19;9.93;;;4.17;;
60726;SDS011;46577;49.004;12.120;2023-06-14T02:59:45;5.00;;;4.27;;
60726;SDS011;46577;49.004;12.120;2023-06-14T03:02:11;6.90;;;3.80;;
60726;SDS011;46577;49.004;12.120;2023-06-14T03:04:36;5.60;;;4.37;;
60726;SDS011;46577;49.004;12.120;2023-06-14T03:07:02;5.63;;;4.60;;
60726;SDS011;46577;49.004;12.120;2023-06-14T03:09:34;7.63;;;3.83;;
60726;SDS011;46577;49.004;12.120;2023-06-14T03:12:01;5.70;;;4.83;;
60726;SDS011;46577;49.004;12.120;2023-06-14T03:14:28;8.03;;;4.53;;
60726;SDS011;46577;49.004;12.120;2023-06-14T03:16:55;5.87;;;4.17;;
60726;SDS011;46577;49.004;12.120;2023-06-14T03:19:21;6.37;;;4.57;;
60726;SDS011;46577;49.004;12.120;2023-06-14T03:21:47;7.80;;;4.33;;
60726;SDS011;46577;49.004;12.120;2023-06-14T03:24:14;6.13;;;4.40;;
60726;SDS011;46577;49.004;12.120;2023-06-14T03:26:41;9.10;;;5.47;;
60726;SDS011;46577;49.004;12.120;2023-06-14T03:29:07;6.80;;;4.40;;
60726;SDS011;46577;49.004;12.120;2023-06-14T03:31:33;8.80;;;4.60;;
60726;SDS011;46577;49.004;12.120;2023-06-14T03:33:59;7.97;;;5.00;;
60726;SDS011;46577;49.004;12.120;2023-06-14T03:36:28;8.70;;;5.17;;
60726;SDS011;46577;49.004;12.120;2023-06-14T03:38:54;7.43;;;4.97;;
60726;SDS011;46577;49.004;12.120;2023-06-14T03:41:20;5.60;;;4.33;;
60726;SDS011;46577;49.004;12.120;2023-06-14T03:43:45;9.07;;;5.10;;
60726;SDS011;46577;49.004;12.120;2023-06-14T03:46:11;11.30;;;4.73;;
60726;SDS011;46577;49.004;12.120;2023-06-14T03:48:37;10.43;;;3.83;;
60726;SDS011;46577;49.004;12.120;2023-06-14T03:51:03;11.33;;;4.77;;
60726;SDS011;46577;49.004;12.120;2023-06-14T03:53:29;11.90;;;5.23;;
60726;SDS011;46577;49.004;12.120;2023-06-14T03:55:55;8.73;;;4.60;;
60726;SDS011;46577;49.004;12.120;2023-06-14T03:58:22;9.70;;;4.50;;
60726;SDS011;46577;49.004;12.120;2023-06-14T04:00:47;5.40;;;4.70;;
60726;SDS011;46577;49.004;12.120;2023-06-14T04:03:13;4.90;;;3.87;;
60726;SDS011;46577;49.004;12.120;2023-06-14T04:05:40;4.20;;;3.53;;
60726;SDS011;46577;49.004;12.120;2023-06-14T04:08:07;9.80;;;5.10;;
60726;SDS011;46577;49.004;12.120;2023-06-14T04:10:34;6.47;;;4.30;;
60726;SDS011;46577;49.004;12.120;2023-06-14T04:13:00;7.50;;;4.13;;
60726;SDS011;46577;49.004;12.120;2023-06-14T04:15:25;9.77;;;5.00;;
60726;SDS011;46577;49.004;12.120;2023-06-14T04:17:53;5.97;;;4.63;;
60726;SDS011;46577;49.004;12.120;2023-06-14T04:20:22;7.00;;;4.87;;
60726;SDS011;46577;49.004;12.120;2023-06-14T04:22:49;7.93;;;3.90;;
60726;SDS011;46577;49.004;12.120;2023-06-14T04:25:15;7.73;;;4.30;;
60726;SDS011;46577;49.004;12.120;2023-06-14T04:27:42;8.83;;;4.43;;
60726;SDS011;46577;49.004;12.120;2023-06-14T04:30:09;8.30;;;4.80;;
60726;SDS011;46577;49.004;12.120;2023-06-14T04:32:35;7.57;;;4.50;;
60726;SDS011;46577;49.004;12.120;2023-06-14T04:35:04;8.13;;;4.67;;
60726;SDS011;46577;49.004;12.120;2023-06-14T04:37:31;6.40;;;4.57;;
60726;SDS011;46577;49.004;12.120;2023-06-14T04:39:58;10.17;;;4.60;;
60726;SDS011;46577;49.004;12.120;2023-06-14T04:42:24;7.47;;;4.43;;
60726;SDS011;46577;49.004;12.120;2023-06-14T04:44:50;5.70;;;4.23;;
60726;SDS011;46577;49.004;12.120;2023-06-14T04:47:17;9.27;;;4.57;;
60726;SDS011;46577;49.004;12.120;2023-06-14T04:49:43;9.07;;;4.30;;
60726;SDS011;46577;49.004;12.120;2023-06-14T04:52:09;5.10;;;3.77;;
60726;SDS011;46577;49.004;12.120;2023-06-14T04:54:38;8.20;;;3.93;;
60726;SDS011;46577;49.004;12.120;2023-06-14T04:57:07;8.47;;;4.50;;
60726;SDS011;46577;49.004;12.120;2023-06-14T04:59:38;5.20;;;4.10;;
60726;SDS011;46577;49.004;12.120;2023-06-14T05:02:04;9.80;;;4.50;;
60726;SDS011;46577;49.004;12.120;2023-06-14T05:04:31;5.00;;;4.50;;
60726;SDS011;46577;49.004;12.120;2023-06-14T05:06:57;5.37;;;3.80;;
60726;SDS011;46577;49.004;12.120;2023-06-14T05:09:22;8.13;;;4.23;;
60726;SDS011;46577;49.004;12.120;2023-06-14T05:11:48;5.07;;;4.47;;
60726;SDS011;46577;49.004;12.120;2023-06-14T05:14:15;5.23;;;4.13;;
60726;SDS011;46577;49.004;12.120;2023-06-14T05:16:41;6.67;;;4.03;;
60726;SDS011;46577;49.004;12.120;2023-06-14T05:19:07;6.70;;;4.40;;
60726;SDS011;46577;49.004;12.120;2023-06-14T05:21:33;8.80;;;4.27;;
60726;SDS011;46577;49.004;12.120;2023-06-14T05:23:59;5.77;;;3.33;;
60726;SDS011;46577;49.004;12.120;2023-06-14T05:26:25;9.50;;;4.47;;
60726;SDS011;46577;49.004;12.120;2023-06-14T05:28:55;6.70;;;3.77;;
60726;SDS011;46577;49.004;12.120;2023-06-14T05:31:24;9.07;;;5.00;;
60726;SDS011;46577;49.004;12.120;2023-06-14T05:33:50;7.43;;;4.03;;
60726;SDS011;46577;49.004;12.120;2023-06-14T05:36:17;8.23;;;4.00;;
60726;SDS011;46577;49.004;12.120;2023-06-14T05:38:43;7.80;;;5.10;;
60726;SDS011;46577;49.004;12.120;2023-06-14T05:41:08;6.70;;;4.27;;
60726;SDS011;46577;49.004;12.120;2023-06-14T05:43:34;5.93;;;4.23;;
60726;SDS011;46577;49.004;12.120;2023-06-14T05:45:59;9.10;;;5.07;;
60726;SDS011;46577;49.004;12.120;2023-06-14T05:48:25;5.73;;;4.10;;
60726;SDS011;46577;49.004;12.120;2023-06-14T05:50:51;8.57;;;4.07;;
60726;SDS011;46577;49.004;12.120;2023-06-14T05:53:16;10.53;;;4.07;;
60726;SDS011;46577;49.004;12.120;2023-06-14T05:55:42;5.23;;;4.67;;
60726;SDS011;46577;49.004;12.120;2023-06-14T05:58:08;4.60;;;4.10;;
60726;SDS011;46577;49.004;12.120;2023-06-14T06:00:33;9.03;;;3.70;;
60726;SDS011;46577;49.004;12.120;2023-06-14T06:02:59;4.60;;;4.20;;
60726;SDS011;46577;49.004;12.120;2023-06-14T06:05:25;7.70;;;4.40;;
60726;SDS011;46577;49.004;12.120;2023-06-14T06:07:51;8.10;;;3.97;;
60726;SDS011;46577;49.004;12.120;2023-06-14T06:10:17;9.97;;;3.47;;
60726;SDS011;46577;49.004;12.120;2023-06-14T06:12:43;4.27;;;3.50;;
60726;SDS011;46577;49.004;12.120;2023-06-14T06:15:08;4.60;;;3.70;;
60726;SDS011;46577;49.004;12.120;2023-06-14T06:17:37;4.63;;;3.30;;
60726;SDS011;46577;49.004;12.120;2023-06-14T06:20:03;9.20;;;3.37;;
60726;SDS011;46577;49.004;12.120;2023-06-14T06:22:31;4.37;;;3.20;;
60726;SDS011;46577;49.004;12.120;2023-06-14T06:24:56;6.10;;;3.50;;
60726;SDS011;46577;49.004;12.120;2023-06-14T06:27:22;7.50;;;3.77;;
60726;SDS011;46577;49.004;12.120;2023-06-14T06:29:48;7.67;;;3.07;;
60726;SDS011;46577;49.004;12.120;2023-06-14T06:32:14;5.00;;;3.60;;
60726;SDS011;46577;49.004;12.120;2023-06-14T06:34:40;6.37;;;3.57;;
60726;SDS011;46577;49.004;12.120;2023-06-14T06:37:06;3.70;;;3.23;;
60726;SDS011;46577;49.004;12.120;2023-06-14T06:39:32;3.03;;;2.73;;
60726;SDS011;46577;49.004;12.120;2023-06-14T06:41:58;6.90;;;3.17;;
60726;SDS011;46577;49.004;12.120;2023-06-14T06:44:23;13.67;;;3.40;;
60726;SDS011;46577;49.004;12.120;2023-06-14T06:46:49;6.60;;;3.63;;
60726;SDS011;46577;49.004;12.120;2023-06-14T06:49:15;5.13;;;2.80;;
60726;SDS011;46577;49.004;12.120;2023-06-14T06:51:41;7.20;;;3.00;;
60726;SDS011;46577;49.004;12.120;2023-06-14T06:54:08;5.47;;;2.67;;
60726;SDS011;46577;49.004;12.120;2023-06-14T06:56:34;8.82;;;2.88;;
60726;SDS011;46577;49.004;12.120;2023-06-14T06:59:00;5.68;;;2.30;;
60726;SDS011;46577;49.004;12.120;2023-06-14T07:01:26;7.05;;;2.47;;
60726;SDS011;46577;49.004;12.120;2023-06-14T07:03:53;13.60;;;2.75;;
60726;SDS011;46577;49.004;12.120;2023-06-14T07:06:19;6.00;;;2.22;;
60726;SDS011;46577;49.004;12.120;2023-06-14T07:08:45;12.55;;;3.17;;
60726;SDS011;46577;49.004;12.120;2023-06-14T07:11:13;2.47;;;2.17;;
60726;SDS011;46577;49.004;12.120;2023-06-14T07:13:39;3.20;;;2.00;;
60726;SDS011;46577;49.004;12.120;2023-06-14T07:16:05;2.50;;;2.20;;
60726;SDS011;46577;49.004;12.120;2023-06-14T07:18:31;2.15;;;1.95;;
60726;SDS011;46577;49.004;12.120;2023-06-14T07:20:56;4.45;;;2.00;;
60726;SDS011;46577;49.004;12.120;2023-06-14T07:23:23;3.97;;;1.95;;
60726;SDS011;46577;49.004;12.120;2023-06-14T07:25:48;3.53;;;2.13;;
60726;SDS011;46577;49.004;12.120;2023-06-14T07:28:15;8.55;;;1.80;;
60726;SDS011;46577;49.004;12.120;2023-06-14T07:30:41;6.95;;;2.08;;
60726;SDS011;46577;49.004;12.120;2023-06-14T07:33:07;2.65;;;1.70;;
60726;SDS011;46577;49.004;12.120;2023-06-14T07:35:33;2.40;;;2.20;;
60726;SDS011;46577;49.004;12.120;2023-06-14T07:37:59;9.15;;;1.95;;
60726;SDS011;46577;49.004;12.120;2023-06-14T07:40:24;6.00;;;2.27;;
60726;SDS011;46577;49.004;12.120;2023-06-14T07:42:50;4.10;;;2.60;;
60726;SDS011;46577;49.004;12.120;2023-06-14T07:45:16;10.13;;;2.83;;
60726;SDS011;46577;49.004;12.120;2023-06-14T07:47:41;3.57;;;2.40;;
60726;SDS011;46577;49.004;12.120;2023-06-14T07:50:07;4.37;;;2.53;;
60726;SDS011;46577;49.004;12.120;2023-06-14T07:52:33;31.13;;;3.30;;
60726;SDS011;46577;49.004;12.120;2023-06-14T07:54:59;14.97;;;2.77;;
60726;SDS011;46577;49.004;12.120;2023-06-14T07:57:26;12.03;;;3.60;;
60726;SDS011;46577;49.004;12.120;2023-06-14T07:59:52;5.80;;;2.47;;
60726;SDS011;46577;49.004;12.120;2023-06-14T08:02:17;11.93;;;2.90;;
60726;SDS011;46577;49.004;12.120;2023-06-14T08:04:43;5.00;;;2.93;;
60726;SDS011;46577;49.004;12.120;2023-06-14T08:07:09;5.13;;;2.90;;
60726;SDS011;46577;49.004;12.120;2023-06-14T08:09:35;3.90;;;3.13;;
60726;SDS011;46577;49.004;12.120;2023-06-14T08:12:03;5.83;;;3.03;;
60726;SDS011;46577;49.004;12.120;2023-06-14T08:17:00;4.70;;;2.37;;
60726;SDS011;46577;49.004;12.120;2023-06-14T08:19:26;7.20;;;2.73;;
60726;SDS011;46577;49.004;12.120;2023-06-14T08:21:52;12.77;;;3.17;;
60726;SDS011;46577;49.004;12.120;2023-06-14T08:24:20;3.28;;;2.28;;
60726;SDS011;46577;49.004;12.120;2023-06-14T08:26:49;3.90;;;2.00;;
60726;SDS011;46577;49.004;12.120;2023-06-14T08:29:15;2.17;;;1.67;;
60726;SDS011;46577;49.004;12.120;2023-06-14T08:31:40;2.00;;;1.55;;
60726;SDS011;46577;49.004;12.120;2023-06-14T08:34:06;11.15;;;1.80;;
60726;SDS011;46577;49.004;12.120;2023-06-14T08:36:32;3.33;;;2.17;;
60726;SDS011;46577;49.004;12.120;2023-06-14T08:38:57;4.88;;;2.47;;
60726;SDS011;46577;49.004;12.120;2023-06-14T08:41:23;3.27;;;2.73;;
60726;SDS011;46577;49.004;12.120;2023-06-14T08:43:52;3.03;;;2.20;;
60726;SDS011;46577;49.004;12.120;2023-06-14T08:46:18;3.00;;;2.70;;
60726;SDS011;46577;49.004;12.120;2023-06-14T08:48:51;4.10;;;2.67;;
60726;SDS011;46577;49.004;12.120;2023-06-14T08:51:20;2.60;;;2.40;;
60726;SDS011;46577;49.004;12.120;2023-06-14T08:53:52;5.87;;;2.70;;
60726;SDS011;46577;49.004;12.120;2023-06-14T08:56:22;50.33;;;4.97;;
60726;SDS011;46577;49.004;12.120;2023-06-14T08:58:52;2.45;;;1.98;;
60726;SDS011;46577;49.004;12.120;2023-06-14T09:01:19;4.95;;;1.92;;
60726;SDS011;46577;49.004;12.120;2023-06-14T09:03:46;5.75;;;2.97;;
60726;SDS011;46577;49.004;12.120;2023-06-14T09:06:14;11.30;;;3.22;;
60726;SDS011;46577;49.004;12.120;2023-06-14T09:08:43;5.57;;;1.67;;
60726;SDS011;46577;49.004;12.120;2023-06-14T09:11:11;4.05;;;2.20;;
60726;SDS011;46577;49.004;12.120;2023-06-14T09:13:38;3.17;;;2.00;;
60726;SDS011;46577;49.004;12.120;2023-06-14T09:16:05;3.72;;;1.98;;
60726;SDS011;46577;49.004;12.120;2023-06-14T09:18:35;1.80;;;1.70;;
60726;SDS011;46577;49.004;12.120;2023-06-14T09:21:01;8.15;;;2.03;;
60726;SDS011;46577;49.004;12.120;2023-06-14T09:23:27;4.20;;;1.95;;
60726;SDS011;46577;49.004;12.120;2023-06-14T09:25:53;6.13;;;2.30;;
60726;SDS011;46577;49.004;12.120;2023-06-14T09:28:19;13.85;;;2.30;;
60726;SDS011;46577;49.004;12.120;2023-06-14T09:30:47;22.42;;;3.20;;
60726;SDS011;46577;49.004;12.120;2023-06-14T09:33:16;5.82;;;2.45;;
60726;SDS011;46577;49.004;12.120;2023-06-14T09:35:44;5.57;;;2.60;;
60726;SDS011;46577;49.004;12.120;2023-06-14T09:38:11;6.33;;;2.80;;
60726;SDS011;46577;49.004;12.120;2023-06-14T09:40:38;12.30;;;3.80;;
60726;SDS011;46577;49.004;12.120;2023-06-14T09:43:08;5.43;;;3.00;;
60726;SDS011;46577;49.004;12.120;2023-06-14T09:45:34;4.60;;;2.80;;
60726;SDS011;46577;49.004;12.120;2023-06-14T09:48:01;13.90;;;3.97;;
60726;SDS011;46577;49.004;12.120;2023-06-14T09:50:27;5.60;;;3.13;;
60726;SDS011;46577;49.004;12.120;2023-06-14T09:52:53;8.63;;;4.27;;
60726;SDS011;46577;49.004;12.120;2023-06-14T09:55:27;4.53;;;3.73;;
60726;SDS011;46577;49.004;12.120;2023-06-14T09:57:55;3.60;;;3.30;;
60726;SDS011;46577;49.004;12.120;2023-06-14T10:00:23;4.17;;;3.77;;
60726;SDS011;46577;49.004;12.120;2023-06-14T10:02:52;8.27;;;3.17;;
60726;SDS011;46577;49.004;12.120;2023-06-14T10:05:23;4.80;;;2.33;;
60726;SDS011;46577;49.004;12.120;2023-06-14T10:07:56;6.13;;;4.00;;
60726;SDS011;46577;49.004;12.120;2023-06-14T10:10:32;4.50;;;3.00;;
60726;SDS011;46577;49.004;12.120;2023-06-14T10:12:58;5.77;;;3.47;;
60726;SDS011;46577;49.004;12.120;2023-06-14T10:17:59;5.60;;;2.90;;
60726;SDS011;46577;49.004;12.120;2023-06-14T10:23:33;12.70;;;2.70;;
60726;SDS011;46577;49.004;12.120;2023-06-14T10:26:03;5.30;;;3.30;;
60726;SDS011;46577;49.004;12.120;2023-06-14T10:28:29;4.90;;;3.13;;
60726;SDS011;46577;49.004;12.120;2023-06-14T10:33:32;3.50;;;3.20;;
60726;SDS011;46577;49.004;12.120;2023-06-14T10:36:24;8.10;;;2.97;;
60726;SDS011;46577;49.004;12.120;2023-06-14T10:38:58;9.50;;;3.10;;
60726;SDS011;46577;49.004;12.120;2023-06-14T10:41:25;7.40;;;3.67;;
60726;SDS011;46577;49.004;12.120;2023-06-14T10:43:52;4.80;;;3.10;;
60726;SDS011;46577;49.004;12.120;2023-06-14T10:46:35;6.90;;;3.00;;
60726;SDS011;46577;49.004;12.120;2023-06-14T10:49:01;4.77;;;3.10;;
60726;SDS011;46577;49.004;12.120;2023-06-14T10:51:29;5.87;;;2.97;;
60726;SDS011;46577;49.004;12.120;2023-06-14T10:54:13;3.30;;;2.83;;
60726;SDS011;46577;49.004;12.120;2023-06-14T10:56:46;9.37;;;3.47;;
60726;SDS011;46577;49.004;12.120;2023-06-14T10:59:16;9.80;;;3.10;;
60726;SDS011;46577;49.004;12.120;2023-06-14T11:04:47;18.00;;;4.37;;
60726;SDS011;46577;49.004;12.120;2023-06-14T11:07:25;5.70;;;3.70;;
60726;SDS011;46577;49.004;12.120;2023-06-14T11:12:44;5.00;;;3.50;;
60726;SDS011;46577;49.004;12.120;2023-06-14T11:15:13;3.87;;;3.13;;
60726;SDS011;46577;49.004;12.120;2023-06-14T11:17:38;5.23;;;3.13;;
60726;SDS011;46577;49.004;12.120;2023-06-14T11:20:08;7.73;;;3.50;;
60726;SDS011;46577;49.004;12.120;2023-06-14T11:22:44;3.40;;;3.10;;
60726;SDS011;46577;49.004;12.120;2023-06-14T11:25:13;8.07;;;3.90;;
60726;SDS011;46577;49.004;12.120;2023-06-14T11:27:41;11.70;;;4.20;;
60726;SDS011;46577;49.004;12.120;2023-06-14T11:30:07;18.03;;;3.87;;
60726;SDS011;46577;49.004;12.120;2023-06-14T11:32:34;5.27;;;3.83;;
60726;SDS011;46577;49.004;12.120;2023-06-14T11:35:01;7.50;;;4.17;;
60726;SDS011;46577;49.004;12.120;2023-06-14T11:37:27;18.23;;;4.83;;
60726;SDS011;46577;49.004;12.120;2023-06-14T11:39:57;8.27;;;4.03;;
60726;SDS011;46577;49.004;12.120;2023-06-14T11:42:23;7.83;;;4.50;;
60726;SDS011;46577;49.004;12.120;2023-06-14T11:44:49;4.80;;;3.93;;
60726;SDS011;46577;49.004;12.120;2023-06-14T11:47:15;5.50;;;3.60;;
60726;SDS011;46577;49.004;12.120;2023-06-14T11:49:41;12.63;;;3.97;;
60726;SDS011;46577;49.004;12.120;2023-06-14T11:52:07;7.07;;;4.30;;
60726;SDS011;46577;49.004;12.120;2023-06-14T11:54:33;6.03;;;4.20;;
60726;SDS011;46577;49.004;12.120;2023-06-14T11:56:58;6.07;;;3.50;;
60726;SDS011;46577;49.004;12.120;2023-06-14T11:59:24;6.53;;;3.57;;
60726;SDS011;46577;49.004;12.120;2023-06-14T12:01:50;25.10;;;4.60;;
60726;SDS011;46577;49.004;12.120;2023-06-14T12:04:28;14.97;;;4.50;;
60726;SDS011;46577;49.004;12.120;2023-06-14T12:06:54;11.60;;;4.10;;
60726;SDS011;46577;49.004;12.120;2023-06-14T12:09:22;15.10;;;4.30;;
60726;SDS011;46577;49.004;12.120;2023-06-14T12:11:50;10.37;;;3.90;;
60726;SDS011;46577;49.004;12.120;2023-06-14T12:14:30;13.90;;;3.70;;
60726;SDS011;46577;49.004;12.120;2023-06-14T12:17:05;13.43;;;3.67;;
60726;SDS011;46577;49.004;12.120;2023-06-14T12:19:32;45.33;;;5.90;;
60726;SDS011;46577;49.004;12.120;2023-06-14T12:22:01;16.93;;;4.93;;
60726;SDS011;46577;49.004;12.120;2023-06-14T12:24:29;20.90;;;4.50;;
60726;SDS011;46577;49.004;12.120;2023-06-14T12:26:57;24.77;;;4.60;;
60726;SDS011;46577;49.004;12.120;2023-06-14T12:29:28;33.43;;;5.33;;
60726;SDS011;46577;49.004;12.120;2023-06-14T12:31:54;18.77;;;4.30;;
60726;SDS011;46577;49.004;12.120;2023-06-14T12:34:21;32.23;;;4.70;;
60726;SDS011;46577;49.004;12.120;2023-06-14T12:36:48;18.87;;;4.80;;
60726;SDS011;46577;49.004;12.120;2023-06-14T12:39:14;4.80;;;3.83;;
60726;SDS011;46577;49.004;12.120;2023-06-14T12:41:40;12.83;;;4.13;;
60726;SDS011;46577;49.004;12.120;2023-06-14T12:44:06;12.10;;;4.53;;
60726;SDS011;46577;49.004;12.120;2023-06-14T12:46:32;24.30;;;5.30;;
60726;SDS011;46577;49.004;12.120;2023-06-14T12:48:59;34.00;;;6.60;;
60726;SDS011;46577;49.004;12.120;2023-06-14T12:51:25;15.53;;;3.90;;
60726;SDS011;46577;49.004;12.120;2023-06-14T12:53:51;9.33;;;4.20;;
60726;SDS011;46577;49.004;12.120;2023-06-14T12:56:17;13.60;;;4.50;;
60726;SDS011;46577;49.004;12.120;2023-06-14T12:58:43;9.83;;;4.17;;
60726;SDS011;46577;49.004;12.120;2023-06-14T13:01:08;5.73;;;3.90;;
60726;SDS011;46577;49.004;12.120;2023-06-14T13:03:34;6.50;;;3.80;;
60726;SDS011;46577;49.004;12.120;2023-06-14T13:06:00;5.90;;;3.80;;
60726;SDS011;46577;49.004;12.120;2023-06-14T13:08:26;5.93;;;3.40;;
60726;SDS011;46577;49.004;12.120;2023-06-14T13:10:52;9.77;;;4.00;;
60726;SDS011;46577;49.004;12.120;2023-06-14T13:13:18;16.17;;;4.43;;
60726;SDS011;46577;49.004;12.120;2023-06-14T13:15:44;8.53;;;4.27;;
60726;SDS011;46577;49.004;12.120;2023-06-14T13:18:11;11.83;;;3.80;;
60726;SDS011;46577;49.004;12.120;2023-06-14T13:20:38;6.80;;;4.20;;
60726;SDS011;46577;49.004;12.120;2023-06-14T13:23:04;15.50;;;4.13;;
60726;SDS011;46577;49.004;12.120;2023-06-14T13:25:32;5.73;;;3.90;;
60726;SDS011;46577;49.004;12.120;2023-06-14T13:27:59;6.43;;;3.70;;
60726;SDS011;46577;49.004;12.120;2023-06-14T13:30:24;4.67;;;3.50;;
60726;SDS011;46577;49.004;12.120;2023-06-14T13:32:50;4.17;;;3.77;;
60726;SDS011;46577;49.004;12.120;2023-06-14T13:35:17;10.80;;;3.50;;
60726;SDS011;46577;49.004;12.120;2023-06-14T13:37:43;4.33;;;3.47;;
60726;SDS011;46577;49.004;12.120;2023-06-14T13:40:09;4.30;;;3.10;;
60726;SDS011;46577;49.004;12.120;2023-06-14T13:42:35;4.07;;;3.63;;
60726;SDS011;46577;49.004;12.120;2023-06-14T13:45:02;3.90;;;3.50;;
60726;SDS011;46577;49.004;12.120;2023-06-14T13:47:28;6.00;;;3.93;;
60726;SDS011;46577;49.004;12.120;2023-06-14T13:49:54;9.50;;;5.07;;
60726;SDS011;46577;49.004;12.120;2023-06-14T13:52:20;8.73;;;3.53;;
60726;SDS011;46577;49.004;12.120;2023-06-14T13:54:46;24.37;;;5.03;;
60726;SDS011;46577;49.004;12.120;2023-06-14T13:57:12;4.70;;;3.43;;
60726;SDS011;46577;49.004;12.120;2023-06-14T13:59:38;21.03;;;6.40;;
60726;SDS011;46577;49.004;12.120;2023-06-14T14:02:05;4.60;;;3.70;;
60726;SDS011;46577;49.004;12.120;2023-06-14T14:04:31;9.73;;;4.37;;
60726;SDS011;46577;49.004;12.120;2023-06-14T14:06:58;6.37;;;3.80;;
60726;SDS011;46577;49.004;12.120;2023-06-14T14:09:23;7.47;;;4.37;;
60726;SDS011;46577;49.004;12.120;2023-06-14T14:11:49;9.43;;;4.70;;
60726;SDS011;46577;49.004;12.120;2023-06-14T14:14:15;6.23;;;3.40;;
60726;SDS011;46577;49.004;12.120;2023-06-14T14:16:40;6.10;;;3.60;;
60726;SDS011;46577;49.004;12.120;2023-06-14T14:19:07;6.27;;;3.80;;
60726;SDS011;46577;49.004;12.120;2023-06-14T14:21:33;5.60;;;4.00;;
60726;SDS011;46577;49.004;12.120;2023-06-14T14:23:58;10.70;;;3.60;;
60726;SDS011;46577;49.004;12.120;2023-06-14T14:26:24;17.43;;;3.97;;
60726;SDS011;46577;49.004;12.120;2023-06-14T14:28:50;9.67;;;3.97;;
60726;SDS011;46577;49.004;12.120;2023-06-14T14:31:16;10.33;;;3.77;;
60726;SDS011;46577;49.004;12.120;2023-06-14T14:33:42;11.53;;;4.07;;
60726;SDS011;46577;49.004;12.120;2023-06-14T14:36:07;5.30;;;3.60;;
60726;SDS011;46577;49.004;12.120;2023-06-14T14:38:33;4.83;;;3.90;;
60726;SDS011;46577;49.004;12.120;2023-06-14T14:40:59;20.07;;;6.20;;
60726;SDS011;46577;49.004;12.120;2023-06-14T14:43:25;11.47;;;3.90;;
60726;SDS011;46577;49.004;12.120;2023-06-14T14:45:51;14.50;;;4.60;;
60726;SDS011;46577;49.004;12.120;2023-06-14T14:48:17;17.03;;;4.00;;
60726;SDS011;46577;49.004;12.120;2023-06-14T14:50:42;7.90;;;4.07;;